P. B. Shah — WDB8609 — position and weather

sailwx.info

Track history (hours):
 
Tides and Currents Weather Stations Pressure Air Temp Water Temp Dewpoint Dewpoint Depression Visibility Wind Speed Wind Dir Waves Ship Positions

P. B. Shah

More information available from US FCC via Universal Licensing System and Coast Guard Vessel Documentation Center.

Last reported at 2014-Jul-03 12:24 UTC. Time now 2014-Aug-29 20:22 UTC.
Position N 30°20' W 091°09'.
Warning: this ship's position is 57 days out of date.

Length 46 m; draft 3.1 m.

Type: Towing. MMSI: 366961480.

Date/timePositionNaut miles runAvg speedWind from/ knotsBaromVisibWave heightAir tempDewpointWater temp
2014-Jul-03 12:24N 30°20' W 091°09'4 3.6
2014-Jul-03 11:13N 30°19' W 091°13'3 3.1
2014-Jul-03 10:24N 30°17' W 091°11'4 4.2
2014-Jul-03 09:33N 30°16' W 091°07'4 3.6
2014-Jul-03 08:33N 30°13' W 091°10'2 2.3
2014-Jul-03 07:33N 30°12' W 091°07'5 3.9
2014-Jul-03 06:10N 30°11' W 091°01'27 1.5
2014-Jul-02 11:28N 30°03' W 090°31'1 0.3
2014-Jul-02 08:25N 30°03' W 090°30'5 5.8
2014-Jul-02 07:33N 30°03' W 090°36'7 6.6
2014-Jul-02 06:33N 30°01' W 090°43'9 4.4
2014-Jul-02 04:25N 30°04' W 090°53'  
Track history (hours):
 
Tides and Currents Weather Stations Pressure Air Temp Water Temp Dewpoint Dewpoint Depression Visibility Wind Speed Wind Dir Waves Ship Positions

P. B. Shah

More information available from US FCC via Universal Licensing System and Coast Guard Vessel Documentation Center.

Last reported at 2014-Jul-03 12:24 UTC. Time now 2014-Aug-29 20:22 UTC.
Position N 30°20' W 091°09'.
Warning: this ship's position is 57 days out of date.

Length 46 m; draft 3.1 m.

Type: Towing. MMSI: 366961480.

Date/timePositionNaut miles runAvg speedWind from/ knotsBaromVisibWave heightAir tempDewpointWater temp
2014-Jul-03 12:24N 30°20' W 091°09'4 3.6
2014-Jul-03 11:13N 30°19' W 091°13'3 3.1
2014-Jul-03 10:24N 30°17' W 091°11'4 4.2
2014-Jul-03 09:33N 30°16' W 091°07'4 3.6
2014-Jul-03 08:33N 30°13' W 091°10'2 2.3
2014-Jul-03 07:33N 30°12' W 091°07'5 3.9
2014-Jul-03 06:10N 30°11' W 091°01'27 1.5
2014-Jul-02 11:28N 30°03' W 090°31'1 0.3
2014-Jul-02 08:25N 30°03' W 090°30'5 5.8
2014-Jul-02 07:33N 30°03' W 090°36'7 6.6
2014-Jul-02 06:33N 30°01' W 090°43'9 4.4
2014-Jul-02 04:25N 30°04' W 090°53'  

Dump ship's entire track history